• Join FlightAware (Why Join?)
  • Login
  • US Flag 
01:38AM EDT


 

Airport Tracker/Info


-or-


 

Live Flight TrackerFlight Track Log ✈ CTL18 ✈ 16-Apr-2013 ✈ KPTK - KMBS

Flight Track Log - Related Links

Times and Time Zones

All times are in EDT time to prevent confusion due to time zone crossing. See the CTL18 flight status page for this flight to view local times or setup timezone preferences in your user account.

Time Position Orientation Groundspeed Altitude Reporting Facility
EDT Latitude Longitude Course Direction KTS MPH feet Rate Location/Type
06:59PM 42.6642 -83.4494 280° West 111 128 1,600  Level FAA TRACON SMA TRACON (SMA)
06:59PM 42.6658 -83.4625 280° West 114 131 1,900 1,020 Climbing FAA TRACON SMA TRACON (SMA)
07:00PM 42.6778 -83.4714 331° Northwest 131 151 2,300 1,020 Climbing FAA TRACON SMA TRACON (SMA)
07:00PM 42.6878 -83.4744 347° North 121 139 2,600 900 Climbing FAA TRACON SMA TRACON (SMA)
07:00PM 42.6986 -83.4767 351° North 125 144 2,900 1,020 Climbing FAA TRACON SMA TRACON (SMA)
07:01PM 42.7122 -83.4800 350° North 128 147 3,300 840 Climbing FAA TRACON SMA TRACON (SMA)
07:01PM 42.7236 -83.4817 354° North 131 151 3,500 720 Climbing FAA TRACON SMA TRACON (SMA)
07:01PM 42.7353 -83.4844 350° North 134 154 3,800 600 Climbing FAA TRACON SMA TRACON (SMA)
07:02PM 42.7497 -83.4875 351° North 136 157 3,900 120 Climbing FAA TRACON SMA TRACON (SMA)
07:02PM 42.7628 -83.4928 343° North 160 184 3,900  Level FAA TRACON SMA TRACON (SMA)
07:02PM 42.7744 -83.5014 332° Northwest 156 180 3,900  Level FAA TRACON SMA TRACON (SMA)
07:03PM 42.7892 -83.5119 332° Northwest 156 180 3,900  Level FAA TRACON SMA TRACON (SMA)
07:03PM 42.8011 -83.5211 331° Northwest 158 182 3,900  Level FAA TRACON SMA TRACON (SMA)
07:03PM 42.8131 -83.5297 332° Northwest 158 182 3,900  Level FAA TRACON SMA TRACON (SMA)
07:04PM 42.8278 -83.5406 332° Northwest 157 181 3,900  Level FAA TRACON SMA TRACON (SMA)
07:04PM 42.8394 -83.5494 331° Northwest 158 182 3,900  Level FAA TRACON SMA TRACON (SMA)
07:04PM 42.8514 -83.5589 330° Northwest 158 182 3,900  Level FAA TRACON SMA TRACON (SMA)
07:04PM 42.8658 -83.5708 329° Northwest 159 183 3,900  Level FAA TRACON SMA TRACON (SMA)
07:05PM 42.8781 -83.5794 333° Northwest 159 183 3,900  Level FAA TRACON SMA TRACON (SMA)
07:05PM 42.8900 -83.5883 331° Northwest 159 183 3,900  Level FAA TRACON SMA TRACON (SMA)
07:05PM 42.9047 -83.5994 331° Northwest 158 182 3,900  Level FAA TRACON SMA TRACON (SMA)
07:06PM 42.9167 -83.6081 332° Northwest 157 181 3,900  Level FAA TRACON SMA TRACON (SMA)
07:06PM 42.9283 -83.6172 330° Northwest 157 181 3,900  Level FAA TRACON SMA TRACON (SMA)
07:07PM 42.9428 -83.6292 329° Northwest 158 182 3,900  Level FAA TRACON SMA TRACON (SMA)
07:07PM 42.9542 -83.6389 328° Northwest 157 181 3,900  Level FAA TRACON SMA TRACON (SMA)
07:07PM 42.9656 -83.6481 330° Northwest 156 180 3,900  Level FAA TRACON SMA TRACON (SMA)
07:08PM 42.9797 -83.6600 328° Northwest 156 180 3,900  Level FAA TRACON SMA TRACON (SMA)
07:08PM 42.9914 -83.6689 331° Northwest 156 180 3,900  Level FAA TRACON SMA TRACON (SMA)
07:08PM 43.0031 -83.6775 332° Northwest 155 178 3,900  Level FAA TRACON SMA TRACON (SMA)
07:08PM 43.0178 -83.6878 333° Northwest 155 178 3,900  Level FAA TRACON SMA TRACON (SMA)
07:09PM 43.0292 -83.6969 330° Northwest 153 176 3,900  Level FAA TRACON SMA TRACON (SMA)
07:09PM 43.0408 -83.7058 331° Northwest 155 178 3,900 120 Level FAA TRACON SMA TRACON (SMA)
07:09PM 43.0556 -83.7172 331° Northwest 156 180 4,000 300 Climbing FAA TRACON SMA TRACON (SMA)
07:12PM 43.1224 -83.7170 North  Level FlightAware Approximate
07:19PM 43.3587 -83.9250 324° Northwest  Level Estimated
07:20PM 43.3938 -83.9519 331° Northwest  Level FlightAware Approximate
07:21PM 43.4288 -83.9787 331° Northwest  Level FlightAware Approximate
07:22PM 43.4639 -84.0056 331° Northwest  Level FlightAware Approximate
07:23PM 43.4955 -84.0395 305° West  Level Estimated
07:24PM 43.5167 -84.0667 305° West  Level FlightAware Approximate
07:25PM 43.5329 -84.0796 305° West  Level Estimated
07:26PM 43.5329 -84.0796 305° West  Level Estimated
07:27PM 43.5329 -84.0796 305° West  Level Estimated
07:28PM 43.5329 -84.0796 305° West  Level Estimated
07:29PM 43.5329 -84.0796 305° West  Level Estimated
07:30PM 43.5329 -84.0796 305° West  Level Estimated